createdAt,value
2017-09-25T03:03:54.393Z,79.20
2017-09-25T03:06:28.535Z,78.70
2017-09-25T03:08:58.898Z,79.40
2017-09-25T03:11:29.988Z,78.70
2017-09-25T03:14:00.451Z,78.60
2017-09-25T03:16:32.774Z,77.90
2017-09-25T03:19:02.652Z,77.90
2017-09-25T03:21:33.709Z,77.40
2017-09-25T03:24:03.853Z,77.50
2017-09-25T03:26:34.304Z,77.50
2017-09-25T03:29:06.512Z,77.00
2017-09-25T03:31:36.731Z,77.00
2017-09-25T03:34:08.764Z,76.80
2017-09-25T03:36:39.073Z,76.90
2017-09-25T03:39:09.738Z,76.50
2017-09-25T03:41:39.629Z,76.60
2017-09-25T03:44:10.912Z,76.30
2017-09-25T03:46:41.488Z,75.90
2017-09-25T03:49:12.352Z,75.50
2017-09-25T03:51:42.671Z,75.50
2017-09-25T03:54:15.486Z,75.40
2017-09-25T03:56:48.079Z,75.30
2017-09-25T03:59:19.102Z,75.40
2017-09-25T04:01:50.965Z,75.50
2017-09-25T04:04:21.852Z,75.50
2017-09-25T04:06:53.575Z,75.00
2017-09-25T04:09:24.684Z,75.20
2017-09-25T04:11:56.068Z,75.30
2017-09-25T04:14:28.553Z,74.90
2017-09-25T04:16:59.527Z,75.30
2017-09-25T04:19:31.113Z,75.10
2017-09-25T04:22:02.430Z,75.40
2017-09-25T04:24:37.603Z,75.30
2017-09-25T04:27:11.818Z,75.30
2017-09-25T04:29:43.001Z,75.60
2017-09-25T04:32:14.612Z,75.60
2017-09-25T04:34:45.197Z,75.30
2017-09-25T04:39:58.090Z,75.10
2017-09-25T04:42:30.755Z,75.00
2017-09-25T04:45:03.102Z,75.00
2017-09-25T04:47:34.114Z,74.80
2017-09-25T04:50:05.589Z,75.00
2017-09-25T04:52:37.674Z,75.10
2017-09-25T04:55:10.300Z,75.10
2017-09-25T04:57:42.432Z,75.10
2017-09-25T05:00:15.528Z,75.20
2017-09-25T05:02:47.196Z,75.10
2017-09-25T05:05:19.243Z,74.90
2017-09-25T05:07:50.564Z,74.90
2017-09-25T05:10:29.025Z,74.70
2017-09-25T05:13:00.420Z,74.60
2017-09-25T05:15:30.056Z,74.60
2017-09-25T05:18:02.225Z,74.90
2017-09-25T05:20:33.629Z,74.90
2017-09-25T05:23:05.013Z,74.80
2017-09-25T05:25:37.212Z,74.90
2017-09-25T05:28:11.058Z,75.00
2017-09-25T05:30:42.793Z,75.40
2017-09-25T05:33:14.967Z,74.80
2017-09-25T05:35:47.405Z,74.80
2017-09-25T05:38:19.551Z,75.10
2017-09-25T05:40:52.336Z,75.10
2017-09-25T05:43:24.656Z,75.20
2017-09-25T05:45:55.909Z,75.30
2017-09-25T05:48:31.153Z,75.50
2017-09-25T05:51:02.037Z,75.50
2017-09-25T05:53:33.281Z,75.60
2017-09-25T05:56:03.958Z,76.00
2017-09-25T05:58:35.839Z,75.90
2017-09-25T06:01:09.484Z,76.30
2017-09-25T06:03:41.025Z,76.30
2017-09-25T06:06:13.449Z,76.70
2017-09-25T06:08:44.871Z,76.80
2017-09-25T06:11:18.556Z,77.70
2017-09-25T06:13:51.947Z,78.20
2017-09-25T06:16:24.614Z,78.20
2017-09-25T06:18:56.885Z,78.40
2017-09-25T06:21:30.828Z,78.40
2017-09-25T06:24:02.945Z,78.20
2017-09-25T06:26:34.588Z,78.20
2017-09-25T06:29:08.804Z,78.20
2017-09-25T06:31:40.100Z,78.10
2017-09-25T06:34:12.201Z,78.00
2017-09-25T06:36:43.489Z,78.00
2017-09-25T06:39:14.609Z,78.00
2017-09-25T06:41:48.769Z,78.70
2017-09-25T06:44:19.002Z,77.90
2017-09-25T06:46:51.356Z,78.10
2017-09-25T06:49:22.597Z,78.10
2017-09-25T06:51:55.194Z,78.10
2017-09-25T06:57:02.711Z,79.10
2017-09-25T06:59:35.396Z,78.80
2017-09-25T07:02:07.247Z,79.10
2017-09-25T07:04:38.335Z,79.20
2017-09-25T07:07:10.318Z,80.30
2017-09-25T07:09:41.897Z,80.40
2017-09-25T07:12:12.241Z,80.20
2017-09-25T07:14:42.417Z,81.40
2017-09-25T07:17:13.680Z,80.90
2017-09-25T07:19:46.588Z,80.80
2017-09-25T07:22:18.660Z,80.80
2017-09-25T07:24:50.604Z,81.20
2017-09-25T07:27:24.188Z,81.10
2017-09-25T07:29:55.612Z,81.10
2017-09-25T07:32:30.315Z,81.30
2017-09-25T07:35:01.925Z,81.20
2017-09-25T07:37:32.767Z,81.20
2017-09-25T07:40:04.055Z,80.90
2017-09-25T07:42:35.772Z,81.40
2017-09-25T07:45:06.202Z,81.40
2017-09-25T07:47:38.764Z,81.10
2017-09-25T07:50:10.642Z,81.50
2017-09-25T07:52:43.708Z,82.00
2017-09-25T07:55:15.592Z,81.60
2017-09-25T07:57:47.185Z,81.10
2017-09-25T08:00:19.219Z,81.00
2017-09-25T08:02:50.870Z,81.40
2017-09-25T08:05:22.054Z,81.80
2017-09-25T08:07:54.305Z,81.70
2017-09-25T08:10:27.101Z,81.70
2017-09-25T08:12:56.312Z,81.20
2017-09-25T08:15:27.812Z,81.90
2017-09-25T08:17:57.716Z,80.90
2017-09-25T08:20:28.288Z,80.90
2017-09-25T08:23:00.535Z,80.70
2017-09-25T08:25:32.132Z,80.90
2017-09-25T08:28:03.557Z,80.90
2017-09-25T08:30:35.702Z,80.10
2017-09-25T08:33:06.120Z,80.10
2017-09-25T08:35:38.509Z,80.60
2017-09-25T08:38:10.848Z,80.30
2017-09-25T08:40:41.612Z,80.00
2017-09-25T08:43:13.845Z,79.50
2017-09-25T08:45:45.407Z,79.50
2017-09-25T08:48:15.749Z,79.70
2017-09-25T08:50:47.238Z,79.10
2017-09-25T08:53:18.633Z,79.10
2017-09-25T08:55:50.944Z,78.60
2017-09-25T08:58:22.320Z,78.00
2017-09-25T09:00:54.613Z,74.10
2017-09-25T09:03:25.333Z,71.70
2017-09-25T09:05:55.912Z,69.90
2017-09-25T09:08:26.337Z,67.50
2017-09-25T09:10:57.106Z,67.00
2017-09-25T09:13:28.705Z,64.70
2017-09-25T09:16:00.445Z,62.90
2017-09-25T09:18:31.968Z,62.70
2017-09-25T09:21:03.648Z,60.40
2017-09-25T09:23:34.771Z,59.90
2017-09-25T09:26:06.033Z,61.60
2017-09-25T09:28:36.178Z,60.80
2017-09-25T09:31:07.259Z,61.50
2017-09-25T09:33:37.601Z,62.40
2017-09-25T09:36:10.261Z,62.30
2017-09-25T09:38:41.674Z,62.30
2017-09-25T09:41:12.773Z,62.30
2017-09-25T09:43:44.104Z,62.30
2017-09-25T09:46:16.394Z,60.40
2017-09-25T09:48:47.437Z,60.40
2017-09-25T09:51:19.009Z,63.20
2017-09-25T09:53:49.816Z,63.10
2017-09-25T09:56:21.132Z,62.30
2017-09-25T09:58:53.712Z,63.10
2017-09-25T10:01:26.443Z,60.70
2017-09-25T10:03:58.511Z,63.60
2017-09-25T10:06:28.882Z,63.60
2017-09-25T10:09:00.105Z,62.30
2017-09-25T10:11:31.922Z,62.40
2017-09-25T10:14:03.737Z,63.60
2017-09-25T10:16:34.744Z,64.00
2017-09-25T10:19:04.013Z,63.80
2017-09-25T10:21:34.784Z,61.50
2017-09-25T10:24:05.950Z,61.50
2017-09-25T10:26:35.848Z,62.70
2017-09-25T10:29:06.243Z,61.10
2017-09-25T10:31:37.590Z,61.10
2017-09-25T10:34:08.385Z,60.60
2017-09-25T10:36:38.769Z,59.50
2017-09-25T10:39:09.612Z,59.30
2017-09-25T10:41:42.785Z,59.90
2017-09-25T10:44:14.902Z,60.10
2017-09-25T10:46:45.597Z,60.10
2017-09-25T10:49:18.087Z,60.80
2017-09-25T10:51:48.080Z,59.50
2017-09-25T10:54:18.473Z,58.30
2017-09-25T10:56:47.728Z,58.30
2017-09-25T10:59:18.689Z,57.30
2017-09-25T11:01:48.985Z,56.30
2017-09-25T11:04:17.850Z,56.40
2017-09-25T11:06:48.137Z,54.90
2017-09-25T11:09:19.891Z,53.20
2017-09-25T11:11:51.982Z,53.80
2017-09-25T11:14:22.597Z,53.70
2017-09-25T11:16:54.763Z,53.50
2017-09-25T11:19:25.446Z,54.10
2017-09-25T11:21:56.476Z,54.10
2017-09-25T11:24:26.985Z,53.30
2017-09-25T11:27:00.636Z,52.70
2017-09-25T11:29:30.829Z,53.10
2017-09-25T11:32:01.491Z,52.90
2017-09-25T11:34:32.453Z,52.60
2017-09-25T11:37:04.060Z,52.30
2017-09-25T11:39:35.530Z,52.20
2017-09-25T11:42:06.989Z,51.70
2017-09-25T11:44:35.341Z,51.60
2017-09-25T11:47:06.663Z,51.40
2017-09-25T11:49:36.988Z,52.10
2017-09-25T11:52:07.151Z,52.10
2017-09-25T11:54:38.457Z,52.20
2017-09-25T11:57:10.941Z,52.50
2017-09-25T11:59:40.559Z,52.50
2017-09-25T12:02:09.476Z,50.80
2017-09-25T12:04:40.761Z,51.20
2017-09-25T12:07:12.909Z,53.20
2017-09-25T12:09:43.288Z,53.20
2017-09-25T12:12:14.230Z,51.60
2017-09-25T12:14:45.680Z,51.40
2017-09-25T12:17:16.841Z,50.10
2017-09-25T12:19:47.312Z,50.10
2017-09-25T12:22:17.781Z,49.30
2017-09-25T12:24:48.404Z,50.40
2017-09-25T12:27:19.073Z,50.40
2017-09-25T12:29:48.925Z,49.50
2017-09-25T12:32:19.145Z,48.40
2017-09-25T12:34:50.316Z,48.80
2017-09-25T12:37:20.034Z,49.40
2017-09-25T12:39:50.183Z,48.50
2017-09-25T12:42:21.895Z,47.70
2017-09-25T12:44:53.206Z,47.70
2017-09-25T12:47:25.008Z,48.80
2017-09-25T12:49:57.692Z,48.80
2017-09-25T12:52:30.185Z,48.80
2017-09-25T12:55:03.154Z,48.70
2017-09-25T12:57:36.781Z,49.00
2017-09-25T13:00:06.384Z,45.90
2017-09-25T13:02:37.106Z,47.00
2017-09-25T13:05:08.737Z,47.70
2017-09-25T13:07:39.121Z,47.90
2017-09-25T13:10:10.617Z,47.50
2017-09-25T13:12:40.858Z,47.50
2017-09-25T13:15:13.106Z,47.50
2017-09-25T13:17:45.914Z,47.40
2017-09-25T13:20:17.606Z,47.20
2017-09-25T13:22:52.804Z,48.80
2017-09-25T13:25:25.599Z,48.90
2017-09-25T13:28:06.295Z,47.70
2017-09-25T13:30:36.733Z,48.70
2017-09-25T13:33:08.413Z,46.70
2017-09-25T13:35:39.529Z,47.20
2017-09-25T13:38:09.668Z,48.40
2017-09-25T13:40:39.817Z,47.70
2017-09-25T13:43:09.925Z,48.50
2017-09-25T13:45:40.737Z,48.50
2017-09-25T13:48:09.648Z,47.90
2017-09-25T13:50:38.954Z,47.90
2017-09-25T13:53:10.400Z,47.30
2017-09-25T13:55:40.845Z,47.30
2017-09-25T13:58:11.963Z,46.40
2017-09-25T14:03:18.574Z,44.50
2017-09-25T14:05:47.921Z,44.70
2017-09-25T14:08:18.928Z,46.50
2017-09-25T14:10:50.568Z,45.50
2017-09-25T14:13:21.877Z,45.50
2017-09-25T14:15:50.436Z,46.20
2017-09-25T14:18:21.016Z,47.10
2017-09-25T14:20:50.359Z,48.20
2017-09-25T14:23:20.287Z,48.00
2017-09-25T14:25:49.732Z,46.20
2017-09-25T14:28:20.750Z,45.20
2017-09-25T14:30:52.237Z,46.40
2017-09-25T14:33:21.608Z,46.30
2017-09-25T14:35:50.855Z,46.20
2017-09-25T14:38:22.477Z,46.00
2017-09-25T14:40:53.225Z,46.30
2017-09-25T14:43:24.512Z,47.40
2017-09-25T14:45:55.876Z,46.80
2017-09-25T14:48:25.725Z,46.60
2017-09-25T14:50:57.602Z,48.90
2017-09-25T14:53:28.124Z,49.20
2017-09-25T14:55:58.186Z,48.10
2017-09-25T14:58:29.287Z,48.00
2017-09-25T15:00:59.861Z,49.80
2017-09-25T15:03:30.679Z,48.60
2017-09-25T15:06:01.581Z,48.40
2017-09-25T15:08:32.605Z,49.20
2017-09-25T15:11:03.805Z,49.00
2017-09-25T15:13:34.722Z,48.90
2017-09-25T15:16:05.478Z,48.90
2017-09-25T15:18:35.612Z,48.90
2017-09-25T15:21:05.286Z,48.80
2017-09-25T15:23:34.660Z,50.00
2017-09-25T15:26:04.840Z,50.30
2017-09-25T15:28:35.017Z,50.30
2017-09-25T15:31:04.466Z,50.50
2017-09-25T15:33:35.505Z,50.10
2017-09-25T15:36:07.753Z,51.40
2017-09-25T15:38:39.092Z,50.70
2017-09-25T15:41:11.336Z,51.90
2017-09-25T15:43:42.137Z,51.80
2017-09-25T15:46:13.109Z,52.00
2017-09-25T15:48:44.762Z,50.30
2017-09-25T15:51:15.969Z,51.40
2017-09-25T15:53:46.554Z,51.50
2017-09-25T15:56:16.830Z,52.30
2017-09-25T15:58:47.977Z,52.20
2017-09-25T16:01:17.055Z,52.20
2017-09-25T16:03:47.628Z,53.90
2017-09-25T16:06:17.369Z,52.00
2017-09-25T16:08:48.686Z,52.50
2017-09-25T16:11:19.220Z,52.40
2017-09-25T16:13:49.179Z,53.00
2017-09-25T16:16:18.937Z,52.50
2017-09-25T16:19:13.444Z,51.50
2017-09-25T16:22:12.534Z,52.90
2017-09-25T16:24:46.735Z,52.90
2017-09-25T16:27:14.878Z,52.90
2017-09-25T16:29:43.054Z,53.20
2017-09-25T16:32:11.201Z,53.50
2017-09-25T16:34:39.419Z,53.90
2017-09-25T16:37:08.331Z,54.50
2017-09-25T16:39:36.469Z,54.50
2017-09-25T16:42:04.653Z,54.30
2017-09-25T16:44:32.825Z,55.70
2017-09-25T16:47:01.787Z,54.60
2017-09-25T16:49:29.969Z,54.60
2017-09-25T16:51:58.258Z,54.50
2017-09-25T16:54:26.406Z,55.00
2017-09-25T16:56:54.993Z,55.30
2017-09-25T16:59:23.197Z,55.50
2017-09-25T17:01:52.131Z,56.10
2017-09-25T17:04:20.344Z,56.10
2017-09-25T17:06:48.549Z,55.60
2017-09-25T17:09:16.813Z,56.20
2017-09-25T17:11:44.956Z,56.20
2017-09-25T17:14:13.113Z,56.20
2017-09-25T17:16:41.285Z,56.40
2017-09-25T17:19:09.503Z,56.60
2017-09-25T17:21:37.676Z,56.90
2017-09-25T17:24:05.872Z,56.90
2017-09-25T17:26:34.804Z,57.40
2017-09-25T17:29:02.965Z,57.40
2017-09-25T17:31:31.145Z,57.50
2017-09-25T17:33:59.308Z,57.30
2017-09-25T17:36:27.583Z,57.70
2017-09-25T17:38:55.722Z,57.80
2017-09-25T17:41:24.630Z,58.10
2017-09-25T17:43:52.802Z,58.00
2017-09-25T17:46:20.948Z,58.00
2017-09-25T17:48:49.157Z,58.10
2017-09-25T17:51:17.292Z,58.10
2017-09-25T17:53:45.578Z,58.20
2017-09-25T17:56:21.453Z,58.20
2017-09-25T17:58:50.413Z,58.00
2017-09-25T18:01:18.571Z,57.90
2017-09-25T18:03:46.737Z,57.90
2017-09-25T18:06:14.920Z,58.00
2017-09-25T18:08:43.088Z,58.10
2017-09-25T18:11:11.373Z,58.30
2017-09-25T18:13:39.897Z,58.50
2017-09-25T18:16:08.098Z,58.80
2017-09-25T18:18:36.262Z,59.10
2017-09-25T18:21:04.436Z,59.10
2017-09-25T18:23:33.776Z,59.10
2017-09-25T18:26:01.923Z,59.10
2017-09-25T18:28:30.076Z,59.20
2017-09-25T18:30:58.234Z,59.30
2017-09-25T18:33:27.299Z,59.10
2017-09-25T18:35:55.467Z,59.10
2017-09-25T18:38:23.666Z,59.80
2017-09-25T18:40:52.602Z,60.10
2017-09-25T18:43:20.801Z,60.00
2017-09-25T18:45:49.049Z,59.90
2017-09-25T18:48:17.244Z,60.00
2017-09-25T18:50:45.498Z,60.80
2017-09-25T18:53:13.668Z,60.80
2017-09-25T18:55:41.868Z,60.60
2017-09-25T18:58:10.122Z,60.70
2017-09-25T19:00:38.484Z,60.70
2017-09-25T19:03:06.623Z,60.90
2017-09-25T19:05:34.806Z,60.90
2017-09-25T19:08:03.209Z,60.90
2017-09-25T19:10:31.356Z,62.00
2017-09-25T19:13:00.297Z,61.30
2017-09-25T19:15:36.200Z,61.20
2017-09-25T19:18:12.027Z,61.20
2017-09-25T19:20:40.421Z,62.10
2017-09-25T19:23:08.576Z,61.50
2017-09-25T19:25:36.748Z,61.50
2017-09-25T19:28:04.887Z,61.50
2017-09-25T19:30:33.114Z,61.60
2017-09-25T19:33:04.492Z,61.60
2017-09-25T19:35:33.870Z,61.90
2017-09-25T19:38:02.059Z,61.90
2017-09-25T19:40:31.125Z,62.00
2017-09-25T19:42:59.380Z,61.90
2017-09-25T19:45:27.542Z,62.10
2017-09-25T19:47:56.525Z,62.80
2017-09-25T19:50:24.928Z,62.70
2017-09-25T19:52:53.140Z,62.80
2017-09-25T19:55:21.305Z,63.00
2017-09-25T19:57:49.469Z,63.10
2017-09-25T20:00:17.659Z,63.50
2017-09-25T20:02:45.859Z,63.30
2017-09-25T20:05:14.768Z,63.90
2017-09-25T20:07:42.932Z,63.90
2017-09-25T20:10:11.892Z,64.00
2017-09-25T20:12:40.826Z,64.40
2017-09-25T20:15:09.056Z,64.30
2017-09-25T20:17:37.216Z,64.30
2017-09-25T20:20:05.371Z,64.10
2017-09-25T20:22:33.550Z,64.60
2017-09-25T20:25:01.696Z,64.60
2017-09-25T20:27:29.878Z,64.60
2017-09-25T20:29:58.044Z,64.60
2017-09-25T20:32:26.250Z,64.60
2017-09-25T20:34:54.412Z,64.80
2017-09-25T20:37:22.604Z,64.90
2017-09-25T20:39:50.789Z,65.10
2017-09-25T20:42:18.935Z,65.10
2017-09-25T20:44:47.124Z,65.50
2017-09-25T20:47:15.270Z,65.50
2017-09-25T20:49:43.565Z,65.80
2017-09-25T20:52:11.709Z,65.70
2017-09-25T20:54:39.902Z,65.60
2017-09-25T20:57:08.057Z,65.40
2017-09-25T20:59:36.237Z,65.30
2017-09-25T21:02:04.410Z,65.50
2017-09-25T21:04:32.559Z,65.60
2017-09-25T21:07:00.706Z,65.70
2017-09-25T21:09:28.852Z,65.60
2017-09-25T21:11:57.020Z,65.80
2017-09-25T21:14:25.178Z,66.10
2017-09-25T21:16:53.388Z,66.20
2017-09-25T21:19:21.529Z,66.40
2017-09-25T21:21:49.815Z,66.20
2017-09-25T21:24:17.962Z,65.90
2017-09-25T21:26:46.130Z,66.30
2017-09-25T21:29:14.330Z,66.70
2017-09-25T21:31:42.468Z,67.50
2017-09-25T21:34:10.649Z,68.00
2017-09-25T21:36:38.800Z,68.10
2017-09-25T21:39:07.754Z,68.00
2017-09-25T21:41:35.907Z,68.00
2017-09-25T21:44:04.056Z,67.90
2017-09-25T21:46:32.239Z,67.90
2017-09-25T21:49:00.424Z,67.70
2017-09-25T21:51:28.572Z,67.80
2017-09-25T21:53:56.731Z,67.70
2017-09-25T21:56:25.014Z,67.80
2017-09-25T21:58:53.176Z,67.70
2017-09-25T22:01:22.093Z,67.70
2017-09-25T22:03:50.272Z,67.70
2017-09-25T22:06:18.429Z,67.70
2017-09-25T22:08:46.583Z,67.90
2017-09-25T22:11:15.656Z,67.80
2017-09-25T22:13:43.845Z,67.80
2017-09-25T22:16:12.039Z,68.00
2017-09-25T22:18:40.196Z,67.90
2017-09-25T22:21:08.401Z,67.80
2017-09-25T22:23:37.309Z,68.10
2017-09-25T22:26:05.489Z,68.10
2017-09-25T22:28:33.638Z,68.20
2017-09-25T22:31:01.933Z,68.60
2017-09-25T22:33:30.108Z,69.40
2017-09-25T22:35:58.270Z,69.70
2017-09-25T22:38:26.462Z,69.50
2017-09-25T22:40:54.597Z,69.20
2017-09-25T22:43:23.545Z,69.20
2017-09-25T22:45:51.697Z,69.20
2017-09-25T22:48:19.996Z,69.40
2017-09-25T22:50:48.141Z,69.40
2017-09-25T22:53:16.333Z,69.70
2017-09-25T22:55:44.481Z,69.90
2017-09-25T22:58:12.640Z,70.00
2017-09-25T23:00:40.820Z,70.10
2017-09-25T23:03:09.956Z,70.00
2017-09-25T23:05:38.244Z,70.00
2017-09-25T23:08:06.436Z,70.70
2017-09-25T23:10:34.656Z,70.00
2017-09-25T23:13:02.789Z,70.10
2017-09-25T23:15:31.739Z,70.90
2017-09-25T23:17:59.909Z,70.20
2017-09-25T23:20:28.210Z,70.00
2017-09-25T23:22:56.352Z,69.90
2017-09-25T23:25:24.516Z,70.00
2017-09-25T23:27:52.689Z,69.90
2017-09-25T23:30:20.837Z,70.00
2017-09-25T23:32:49.899Z,70.10
2017-09-25T23:35:18.055Z,70.10
2017-09-25T23:37:46.270Z,70.20
2017-09-25T23:40:15.198Z,70.40
2017-09-25T23:42:43.352Z,70.40
2017-09-25T23:45:12.290Z,70.20
2017-09-25T23:47:40.441Z,70.20
2017-09-25T23:50:08.747Z,70.20
2017-09-25T23:52:36.936Z,70.10
2017-09-25T23:55:05.146Z,69.90
2017-09-25T23:57:33.296Z,69.80
